createdAt,value
2022-12-23T00:07:42.753Z,2.23
2022-12-23T00:16:08.488Z,2.25
2022-12-23T00:24:31.287Z,2.29
2022-12-23T00:32:54.355Z,2.25
2022-12-23T00:41:37.536Z,2.13
2022-12-23T00:50:00.285Z,2.07
2022-12-23T00:58:23.189Z,2.10
2022-12-23T01:06:46.137Z,2.15
2022-12-23T01:15:09.319Z,2.18
2022-12-23T01:23:33.406Z,2.23
2022-12-23T01:31:56.332Z,2.31
2022-12-23T01:40:19.354Z,2.31
2022-12-23T01:48:47.125Z,2.37
2022-12-23T01:57:10.344Z,2.46
2022-12-23T02:05:33.143Z,2.48
2022-12-23T02:14:37.036Z,2.53
2022-12-23T02:23:21.747Z,2.64
2022-12-23T02:32:04.304Z,2.73
2022-12-23T02:40:46.008Z,2.74
2022-12-23T02:49:20.071Z,2.79
2022-12-23T02:57:47.018Z,2.84
2022-12-23T03:06:19.702Z,2.83
2022-12-23T03:15:14.508Z,2.85
2022-12-23T03:24:05.838Z,2.87
2022-12-23T03:32:34.339Z,2.84
2022-12-23T03:41:02.670Z,2.84
2022-12-23T03:49:38.148Z,2.88
2022-12-23T03:58:19.853Z,2.85
2022-12-23T04:06:51.252Z,2.74
2022-12-23T04:15:19.380Z,2.57
2022-12-23T04:23:42.791Z,2.48
2022-12-23T04:32:06.072Z,2.45
2022-12-23T04:40:28.908Z,2.51
2022-12-23T04:48:51.747Z,2.54
2022-12-23T04:57:15.425Z,2.54
2022-12-23T05:05:44.087Z,2.59
2022-12-23T05:14:06.866Z,2.62
2022-12-23T05:22:29.619Z,2.59
2022-12-23T05:31:04.414Z,2.65
2022-12-23T05:39:27.320Z,2.71
2022-12-23T05:47:50.163Z,2.74
2022-12-23T05:56:13.149Z,2.73
2022-12-23T06:04:35.967Z,2.79
2022-12-23T06:12:58.969Z,2.86
2022-12-23T06:21:22.122Z,2.89
2022-12-23T06:29:45.039Z,2.84
2022-12-23T06:38:12.052Z,2.79
2022-12-23T06:46:35.547Z,2.82
2022-12-23T06:54:58.390Z,2.89
2022-12-23T07:03:21.749Z,2.88
2022-12-23T07:11:44.700Z,2.85
2022-12-23T07:20:08.699Z,2.86
2022-12-23T07:28:32.011Z,2.88
2022-12-23T07:36:55.850Z,2.90
2022-12-23T07:45:18.767Z,2.97
2022-12-23T07:53:41.660Z,3.01
2022-12-23T08:02:04.701Z,2.97
2022-12-23T08:10:28.020Z,2.99
2022-12-23T08:18:50.929Z,3.09
2022-12-23T08:27:13.998Z,3.09
2022-12-23T08:35:37.425Z,3.07
2022-12-23T08:44:00.293Z,3.09
2022-12-23T08:52:23.472Z,3.12
2022-12-23T09:00:46.496Z,3.19
2022-12-23T09:09:15.800Z,3.20
2022-12-23T09:17:38.820Z,3.17
2022-12-23T09:26:01.787Z,3.29
2022-12-23T09:34:26.600Z,3.43
2022-12-23T09:43:15.265Z,3.46
2022-12-23T09:51:38.804Z,3.52
2022-12-23T10:00:08.659Z,3.69
2022-12-23T10:08:39.903Z,3.84
2022-12-23T10:17:08.973Z,4.01
2022-12-23T10:25:37.417Z,4.20
2022-12-23T10:34:38.380Z,4.31
2022-12-23T10:43:17.049Z,4.38
2022-12-23T10:51:52.167Z,4.60
2022-12-23T11:00:24.888Z,4.78
2022-12-23T11:08:50.891Z,4.75
2022-12-23T11:17:26.031Z,4.71
2022-12-23T11:25:48.876Z,4.68
2022-12-23T11:34:18.761Z,4.58
2022-12-23T11:42:42.753Z,4.57
2022-12-23T11:51:05.894Z,4.57
2022-12-23T11:59:40.545Z,4.55
2022-12-23T12:08:14.697Z,4.53
2022-12-23T12:17:03.206Z,4.52
2022-12-23T12:25:44.934Z,4.47
2022-12-23T12:34:22.844Z,4.36
2022-12-23T12:42:58.821Z,4.27
2022-12-23T12:51:40.340Z,4.22
2022-12-23T13:00:07.231Z,4.18
2022-12-23T13:09:02.505Z,4.17
2022-12-23T13:17:32.527Z,4.12
2022-12-23T13:26:06.176Z,4.01
2022-12-23T13:34:34.813Z,3.95
2022-12-23T13:43:05.760Z,3.90
2022-12-23T13:51:44.501Z,3.82
2022-12-23T14:00:16.369Z,3.78
2022-12-23T14:08:43.357Z,3.75
2022-12-23T14:17:20.292Z,3.66
2022-12-23T14:25:59.251Z,3.56
2022-12-23T14:34:23.422Z,3.54
2022-12-23T14:42:48.156Z,3.55
2022-12-23T14:51:11.057Z,3.57
2022-12-23T15:00:01.525Z,3.55
2022-12-23T15:08:32.071Z,3.50
2022-12-23T15:16:55.039Z,3.48
2022-12-23T15:25:30.639Z,3.49
2022-12-23T15:34:04.141Z,3.50
2022-12-23T15:42:38.756Z,3.52
2022-12-23T15:51:11.243Z,3.50
2022-12-23T15:59:38.683Z,3.48
2022-12-23T16:08:11.837Z,3.48
2022-12-23T16:16:42.305Z,3.50
2022-12-23T16:25:15.250Z,3.46
2022-12-23T16:33:45.766Z,3.41
2022-12-23T16:42:11.280Z,3.41
2022-12-23T16:50:37.038Z,3.44
2022-12-23T16:59:00.928Z,3.48
2022-12-23T17:07:27.117Z,3.46
2022-12-23T17:15:50.542Z,3.45
2022-12-23T17:24:17.268Z,3.50
2022-12-23T17:32:40.207Z,3.55
2022-12-23T17:41:03.187Z,3.62
2022-12-23T17:49:25.962Z,3.69
2022-12-23T17:57:48.920Z,3.64
2022-12-23T18:06:15.916Z,3.65
2022-12-23T18:14:38.731Z,3.65
2022-12-23T18:23:04.134Z,3.69
2022-12-23T18:31:27.827Z,3.70
2022-12-23T18:39:51.755Z,3.74
2022-12-23T18:48:15.221Z,3.81
2022-12-23T18:56:38.002Z,3.88
2022-12-23T19:05:00.802Z,3.95
2022-12-23T19:13:23.740Z,3.97
2022-12-23T19:21:46.706Z,3.96
2022-12-23T19:30:14.667Z,4.02
2022-12-23T19:38:37.969Z,4.09
2022-12-23T19:47:01.839Z,4.18
2022-12-23T19:55:24.721Z,4.24
2022-12-23T20:03:49.110Z,4.25
2022-12-23T20:12:12.013Z,4.28
2022-12-23T20:20:36.214Z,4.36
2022-12-23T20:28:59.524Z,4.37
2022-12-23T20:37:22.401Z,4.39
2022-12-23T20:45:46.353Z,4.43
2022-12-23T20:54:09.329Z,4.47
2022-12-23T21:02:32.339Z,4.49
2022-12-23T21:10:55.864Z,4.48
2022-12-23T21:19:20.745Z,4.47
2022-12-23T21:27:43.881Z,4.48
2022-12-23T21:36:08.169Z,4.55
2022-12-23T21:44:31.086Z,4.59
2022-12-23T21:52:54.072Z,4.54
2022-12-23T22:01:19.433Z,4.57
2022-12-23T22:09:42.436Z,4.60
2022-12-23T22:18:05.314Z,4.58
2022-12-23T22:26:31.108Z,4.53
2022-12-23T22:34:54.033Z,4.55
2022-12-23T22:43:17.693Z,4.59
2022-12-23T22:51:41.337Z,4.59
2022-12-23T23:00:11.919Z,4.57
2022-12-23T23:08:36.243Z,4.54
2022-12-23T23:16:59.202Z,4.58
2022-12-23T23:25:23.619Z,4.59
2022-12-23T23:33:47.163Z,4.63
2022-12-23T23:42:10.749Z,4.64
2022-12-23T23:50:33.623Z,4.64
2022-12-23T23:58:57.120Z,4.58
